createdAt,value
2023-04-27T00:00:47.223Z,99996.69
2023-04-27T00:03:15.978Z,100005.25
2023-04-27T00:05:44.166Z,99998.88
2023-04-27T00:08:12.001Z,100003.19
2023-04-27T00:10:39.804Z,99997.34
2023-04-27T00:13:07.587Z,99997.00
2023-04-27T00:15:36.713Z,99996.28
2023-04-27T00:18:04.805Z,99992.44
2023-04-27T00:20:33.802Z,99987.66
2023-04-27T00:23:01.461Z,99993.56
2023-04-27T00:25:29.413Z,99989.03
2023-04-27T00:27:57.004Z,99986.41
2023-04-27T00:30:26.108Z,99980.00
2023-04-27T00:32:56.124Z,99989.78
2023-04-27T00:35:24.404Z,99978.22
2023-04-27T00:37:54.194Z,99976.53
2023-04-27T00:40:22.190Z,99982.78
2023-04-27T00:42:49.887Z,99980.94
2023-04-27T00:45:17.589Z,99976.97
2023-04-27T00:47:45.839Z,99978.44
2023-04-27T00:50:15.592Z,99971.31
2023-04-27T00:52:43.779Z,99966.06
2023-04-27T00:55:11.678Z,99982.06
2023-04-27T00:57:41.289Z,99974.31
2023-04-27T01:00:11.855Z,99977.22
2023-04-27T01:02:40.864Z,99977.38
2023-04-27T01:05:09.365Z,99987.63
2023-04-27T01:07:40.134Z,99979.44
2023-04-27T01:10:08.972Z,99942.56
2023-04-27T01:12:36.968Z,99923.38
2023-04-27T01:15:07.858Z,99985.91
2023-04-27T01:17:35.744Z,99986.63
2023-04-27T01:20:07.571Z,99986.97
2023-04-27T01:22:36.147Z,100002.47
2023-04-27T01:25:06.319Z,99991.91
2023-04-27T01:27:33.952Z,99997.38
2023-04-27T01:30:01.593Z,99993.19
2023-04-27T01:32:29.422Z,99989.09
2023-04-27T01:34:57.104Z,99996.06
2023-04-27T01:37:27.683Z,99995.25
2023-04-27T01:39:55.326Z,99987.66
2023-04-27T01:42:24.301Z,99992.22
2023-04-27T01:44:51.952Z,99989.81
2023-04-27T01:47:19.553Z,99997.34
2023-04-27T01:49:47.171Z,99999.28
2023-04-27T01:52:14.803Z,99991.34
2023-04-27T01:54:42.438Z,99996.66
2023-04-27T01:57:10.955Z,99937.63
2023-04-27T01:59:39.906Z,100000.09
2023-04-27T02:02:07.972Z,100001.91
2023-04-27T02:04:37.827Z,100000.56
2023-04-27T02:07:05.616Z,99992.81
2023-04-27T02:09:33.359Z,100005.56
2023-04-27T02:12:02.593Z,99999.97
2023-04-27T02:14:30.404Z,100002.16
2023-04-27T02:16:59.412Z,100000.78
2023-04-27T02:19:27.063Z,100000.00
2023-04-27T02:21:54.756Z,99993.94
2023-04-27T02:24:22.952Z,99998.63
2023-04-27T02:26:50.585Z,99999.19
2023-04-27T02:29:19.486Z,99999.84
2023-04-27T02:31:47.700Z,100003.72
2023-04-27T02:34:16.930Z,100005.28
2023-04-27T02:36:44.591Z,100013.94
2023-04-27T02:39:12.643Z,100018.81
2023-04-27T02:41:40.614Z,100019.59
2023-04-27T02:44:09.128Z,100018.47
2023-04-27T02:46:36.826Z,100018.03
2023-04-27T02:49:04.440Z,100018.03
2023-04-27T02:51:33.396Z,100017.56
2023-04-27T02:54:01.192Z,100023.94
2023-04-27T02:56:29.227Z,100013.03
2023-04-27T02:58:57.267Z,99999.97
2023-04-27T03:01:25.248Z,100016.91
2023-04-27T03:03:53.189Z,100017.81
2023-04-27T03:06:20.847Z,100019.31
2023-04-27T03:08:49.834Z,100018.50
2023-04-27T03:11:17.541Z,100022.13
2023-04-27T03:13:45.202Z,100020.00
2023-04-27T03:16:13.025Z,100021.47
2023-04-27T03:18:41.192Z,100021.81
2023-04-27T03:21:10.640Z,100012.34
2023-04-27T03:23:38.623Z,100021.66
2023-04-27T03:26:12.075Z,100008.91
2023-04-27T03:28:39.996Z,100009.59
2023-04-27T03:31:08.575Z,100011.28
2023-04-27T03:33:37.394Z,100009.00
2023-04-27T03:36:06.695Z,100011.28
2023-04-27T03:38:35.499Z,100007.16
2023-04-27T03:41:03.135Z,100010.56
2023-04-27T03:43:32.457Z,100018.41
2023-04-27T03:46:00.310Z,100009.16
2023-04-27T03:48:27.991Z,100014.38
2023-04-27T03:50:56.551Z,100007.09
2023-04-27T03:53:24.221Z,100004.34
2023-04-27T03:55:52.433Z,100009.56
2023-04-27T03:58:20.399Z,100009.66
2023-04-27T04:01:14.704Z,100006.66
2023-04-27T04:03:43.390Z,100010.47
2023-04-27T04:06:12.679Z,100013.63
2023-04-27T04:08:40.534Z,100007.81
2023-04-27T04:11:08.159Z,100007.94
2023-04-27T04:13:37.075Z,100013.03
2023-04-27T04:16:05.853Z,100015.88
2023-04-27T04:18:36.042Z,100014.03
2023-04-27T04:21:04.212Z,100015.53
2023-04-27T04:23:32.862Z,100015.19
2023-04-27T04:26:02.084Z,100018.25
2023-04-27T04:28:33.830Z,100021.69
2023-04-27T04:31:02.736Z,100018.25
2023-04-27T04:33:31.147Z,100019.59
2023-04-27T04:36:00.384Z,100024.00
2023-04-27T04:38:28.421Z,100017.16
2023-04-27T04:40:56.088Z,100013.00
2023-04-27T04:43:23.833Z,100022.09
2023-04-27T04:45:51.612Z,100024.47
2023-04-27T04:48:20.287Z,100021.94
2023-04-27T04:50:48.104Z,100024.78
2023-04-27T04:53:17.086Z,100024.31
2023-04-27T04:55:44.825Z,100018.75
2023-04-27T04:58:12.435Z,100015.66
2023-04-27T05:00:40.046Z,100014.59
2023-04-27T05:03:08.048Z,100015.38
2023-04-27T05:05:35.827Z,100008.94
2023-04-27T05:08:03.518Z,100017.88
2023-04-27T05:10:32.547Z,100022.19
2023-04-27T05:13:00.161Z,100024.41
2023-04-27T05:15:27.800Z,100020.06
2023-04-27T05:17:55.430Z,100026.50
2023-04-27T05:20:23.498Z,100028.09
2023-04-27T05:22:51.407Z,100032.81
2023-04-27T05:25:19.304Z,100036.41
2023-04-27T05:27:48.264Z,100031.81
2023-04-27T05:30:16.025Z,100042.00
2023-04-27T05:32:43.642Z,100040.91
2023-04-27T05:35:11.337Z,100047.41
2023-04-27T05:37:39.033Z,100043.22
2023-04-27T05:40:09.632Z,100057.00
2023-04-27T05:42:37.349Z,100062.81
2023-04-27T05:45:07.828Z,100062.16
2023-04-27T05:47:35.573Z,100069.88
2023-04-27T05:50:03.693Z,100073.00
2023-04-27T05:52:31.661Z,100064.97
2023-04-27T05:54:59.721Z,100069.22
2023-04-27T05:57:28.022Z,100073.75
2023-04-27T05:59:56.188Z,100072.09
2023-04-27T06:02:25.301Z,100062.56
2023-04-27T06:04:53.102Z,100063.88
2023-04-27T06:07:21.335Z,100077.47
2023-04-27T06:09:48.952Z,100071.84
2023-04-27T06:12:16.664Z,100077.50
2023-04-27T06:14:44.242Z,100075.28
2023-04-27T06:17:11.929Z,100076.19
2023-04-27T06:19:40.973Z,100078.94
2023-04-27T06:22:08.555Z,100083.88
2023-04-27T06:24:36.715Z,100089.25
2023-04-27T06:27:04.533Z,100091.81
2023-04-27T06:29:32.204Z,100092.50
2023-04-27T06:32:00.083Z,100087.81
2023-04-27T06:34:27.966Z,100101.13
2023-04-27T06:36:56.925Z,100115.22
2023-04-27T06:39:24.524Z,100123.25
2023-04-27T06:41:52.158Z,100117.50
2023-04-27T06:44:19.911Z,100108.97
2023-04-27T06:46:47.547Z,100112.53
2023-04-27T06:49:15.442Z,100118.81
2023-04-27T06:51:43.463Z,100120.03
2023-04-27T06:54:12.503Z,100117.88
2023-04-27T06:56:40.178Z,100115.91
2023-04-27T06:59:08.601Z,100120.28
2023-04-27T07:01:36.537Z,100114.56
2023-04-27T07:04:04.622Z,100127.94
2023-04-27T07:06:32.638Z,100122.16
2023-04-27T07:09:00.643Z,100123.28
2023-04-27T07:11:29.577Z,100124.34
2023-04-27T07:13:57.219Z,100120.16
2023-04-27T07:16:24.938Z,100119.50
2023-04-27T07:18:52.636Z,100123.19
2023-04-27T07:21:20.526Z,100123.22
2023-04-27T07:23:48.123Z,100124.09
2023-04-27T07:26:15.893Z,100124.97
2023-04-27T07:28:44.905Z,100115.38
2023-04-27T07:31:12.973Z,100121.06
2023-04-27T07:33:40.855Z,100127.00
2023-04-27T07:36:08.829Z,100119.53
2023-04-27T07:38:38.348Z,100116.63
2023-04-27T07:41:07.272Z,100108.34
2023-04-27T07:43:35.112Z,100131.47
2023-04-27T07:46:04.435Z,100134.38
2023-04-27T07:48:32.613Z,100121.34
2023-04-27T07:51:00.199Z,100133.22
2023-04-27T07:53:27.811Z,100134.88
2023-04-27T07:55:55.447Z,100124.63
2023-04-27T07:58:23.213Z,100115.75
2023-04-27T08:00:50.855Z,100116.84
2023-04-27T08:03:19.965Z,100116.44
2023-04-27T08:05:47.821Z,100104.72
2023-04-27T08:08:15.993Z,100115.03
2023-04-27T08:10:43.845Z,100104.59
2023-04-27T08:13:12.081Z,100106.66
2023-04-27T08:15:39.849Z,100107.53
2023-04-27T08:18:07.548Z,100108.41
2023-04-27T08:20:36.556Z,100102.91
2023-04-27T08:23:04.209Z,100055.09
2023-04-27T08:25:31.873Z,100115.53
2023-04-27T08:27:59.440Z,100106.47
2023-04-27T08:30:27.065Z,100104.47
2023-04-27T08:32:54.960Z,100098.56
2023-04-27T08:35:22.716Z,100097.78
2023-04-27T08:37:51.768Z,100083.16
2023-04-27T08:40:20.850Z,100082.72
2023-04-27T08:42:56.210Z,100085.47
2023-04-27T08:45:24.385Z,100075.34
2023-04-27T08:47:52.809Z,100077.28
2023-04-27T08:50:21.268Z,100084.41
2023-04-27T08:52:52.086Z,100076.84
2023-04-27T08:55:20.170Z,100076.84
2023-04-27T08:57:58.320Z,100085.41
2023-04-27T09:00:27.012Z,100076.38
2023-04-27T09:02:55.042Z,100079.88
2023-04-27T09:05:23.972Z,100079.09
2023-04-27T09:08:00.713Z,100066.47
2023-04-27T09:10:29.930Z,100076.78
2023-04-27T09:12:59.116Z,100089.25
2023-04-27T09:15:26.823Z,100095.31
2023-04-27T09:17:56.227Z,100104.41
2023-04-27T09:20:26.821Z,100093.53
2023-04-27T09:22:55.964Z,100101.22
2023-04-27T09:25:26.665Z,100089.84
2023-04-27T09:27:54.613Z,100078.69
2023-04-27T09:30:22.540Z,100087.38
2023-04-27T09:32:54.430Z,100075.41
2023-04-27T09:35:24.163Z,100065.06
2023-04-27T09:37:53.769Z,100081.69
2023-04-27T09:40:26.479Z,100025.16
2023-04-27T09:42:57.179Z,100072.06
2023-04-27T09:45:25.514Z,100075.13
2023-04-27T09:47:53.801Z,100073.66
2023-04-27T09:50:22.516Z,100073.66
2023-04-27T09:52:50.410Z,100068.50
2023-04-27T09:55:22.157Z,100064.56
2023-04-27T09:57:59.925Z,100063.69
2023-04-27T10:00:43.409Z,100073.53
2023-04-27T10:03:23.163Z,100077.41
2023-04-27T10:06:26.537Z,100068.13
2023-04-27T10:08:54.244Z,100077.03
2023-04-27T10:11:23.052Z,100066.38
2023-04-27T10:13:56.281Z,100073.03
2023-04-27T10:16:24.046Z,100069.47
2023-04-27T10:18:54.005Z,100071.78
2023-04-27T10:21:22.053Z,100065.41
2023-04-27T10:23:51.250Z,100063.53
2023-04-27T10:26:26.048Z,100030.41
2023-04-27T10:29:07.501Z,100064.69
2023-04-27T10:31:35.809Z,100065.97
2023-04-27T10:34:08.466Z,100063.09
2023-04-27T10:36:37.951Z,100063.03
2023-04-27T10:39:16.127Z,100063.09
2023-04-27T10:41:52.093Z,100059.94
2023-04-27T10:44:27.094Z,100060.31
2023-04-27T10:46:55.986Z,100056.94
2023-04-27T10:49:24.163Z,100042.94
2023-04-27T10:51:52.455Z,100046.47
2023-04-27T10:54:20.283Z,100045.84
2023-04-27T10:56:48.219Z,100044.19
2023-04-27T10:59:16.266Z,100045.66
2023-04-27T11:01:50.027Z,100038.78
2023-04-27T11:04:18.541Z,100038.84
2023-04-27T11:06:47.112Z,100037.81
2023-04-27T11:09:15.705Z,100037.56
2023-04-27T11:11:46.809Z,100022.06
2023-04-27T11:14:21.616Z,100038.47
2023-04-27T11:16:51.086Z,100038.72
2023-04-27T11:19:18.719Z,100037.97
2023-04-27T11:21:46.523Z,100034.41
2023-04-27T11:24:15.553Z,100038.03
2023-04-27T11:26:43.345Z,100031.97
2023-04-27T11:29:13.860Z,100034.81
2023-04-27T11:31:47.378Z,100028.88
2023-04-27T11:34:19.722Z,100024.53
2023-04-27T11:37:07.113Z,100018.09
2023-04-27T11:39:42.965Z,100022.97
2023-04-27T11:42:19.051Z,100022.81
2023-04-27T11:44:53.151Z,99951.31
2023-04-27T11:47:22.384Z,100016.75
2023-04-27T11:49:52.845Z,100017.16
2023-04-27T11:52:20.725Z,100012.50
2023-04-27T11:54:49.612Z,99981.41
2023-04-27T11:57:17.446Z,100013.72
2023-04-27T11:59:45.118Z,100004.03
2023-04-27T12:02:12.783Z,99999.78
2023-04-27T12:04:40.731Z,99999.25
2023-04-27T12:07:10.214Z,99998.50
2023-04-27T12:09:37.830Z,100000.25
2023-04-27T12:12:06.371Z,99993.50
2023-04-27T12:14:34.061Z,99991.25
2023-04-27T12:17:02.007Z,99994.13
2023-04-27T12:19:30.471Z,99988.63
2023-04-27T12:21:58.513Z,99982.22
2023-04-27T12:24:27.739Z,99976.22
2023-04-27T12:26:55.483Z,99980.53
2023-04-27T12:29:24.415Z,99969.94
2023-04-27T12:31:52.256Z,99969.22
2023-04-27T12:34:20.113Z,99962.03
2023-04-27T12:36:47.952Z,99963.59
2023-04-27T12:39:17.129Z,99964.47
2023-04-27T12:41:47.132Z,99954.31
2023-04-27T12:44:16.539Z,99950.66
2023-04-27T12:46:45.107Z,99963.50
2023-04-27T12:49:13.393Z,99956.78
2023-04-27T12:51:41.317Z,99951.25
2023-04-27T12:54:10.052Z,99952.38
2023-04-27T12:56:37.762Z,99958.19
2023-04-27T12:59:06.816Z,99954.16
2023-04-27T13:01:34.920Z,99954.88
2023-04-27T13:04:05.530Z,99954.66
2023-04-27T13:06:33.565Z,99950.75
2023-04-27T13:09:01.305Z,99960.81
2023-04-27T13:11:29.031Z,99952.41
2023-04-27T13:13:56.641Z,99958.81
2023-04-27T13:16:26.413Z,99948.47
2023-04-27T13:18:55.467Z,99949.28
2023-04-27T13:21:23.367Z,99950.84
2023-04-27T13:23:53.592Z,99942.47
2023-04-27T13:26:22.376Z,99941.38
2023-04-27T13:28:50.136Z,99930.66
2023-04-27T13:31:17.889Z,99942.13
2023-04-27T13:33:47.005Z,99936.63
2023-04-27T13:36:14.698Z,99936.00
2023-04-27T13:38:42.707Z,99935.88
2023-04-27T13:41:10.335Z,99930.69
2023-04-27T13:43:37.966Z,99942.28
2023-04-27T13:46:05.800Z,99930.66
2023-04-27T13:48:33.481Z,99951.91
2023-04-27T13:51:02.466Z,99945.53
2023-04-27T13:53:30.213Z,99942.75
2023-04-27T13:55:58.914Z,99946.63
2023-04-27T13:58:28.480Z,99944.38
2023-04-27T14:00:56.456Z,99938.13
2023-04-27T14:03:24.531Z,99938.47
2023-04-27T14:05:52.192Z,99935.44
2023-04-27T14:08:21.687Z,99932.28
2023-04-27T14:10:49.893Z,99932.16
2023-04-27T14:13:19.754Z,99933.41
2023-04-27T14:15:47.415Z,99932.31
2023-04-27T14:18:15.552Z,99943.78
2023-04-27T14:20:45.341Z,99937.88
2023-04-27T14:23:13.184Z,99946.06
2023-04-27T14:25:42.161Z,99948.25
2023-04-27T14:28:12.254Z,99948.72
2023-04-27T14:30:40.002Z,99935.44
2023-04-27T14:33:07.840Z,99938.50
2023-04-27T14:35:37.008Z,99938.97
2023-04-27T14:38:05.585Z,99936.41
2023-04-27T14:40:33.914Z,99933.91
2023-04-27T14:43:02.931Z,99933.38
2023-04-27T14:45:36.976Z,99927.47
2023-04-27T14:48:11.629Z,99929.59
2023-04-27T14:50:39.479Z,99929.44
2023-04-27T14:53:07.068Z,99922.50
2023-04-27T14:55:34.956Z,99929.78
2023-04-27T14:58:04.023Z,99926.84
2023-04-27T15:00:31.663Z,99930.44
2023-04-27T15:02:59.308Z,99929.50
2023-04-27T15:05:26.966Z,99925.16
2023-04-27T15:07:54.563Z,99921.50
2023-04-27T15:10:22.478Z,99928.41
2023-04-27T15:12:50.082Z,99920.25
2023-04-27T15:15:19.370Z,99921.38
2023-04-27T15:17:46.981Z,99915.78
2023-04-27T15:20:15.019Z,99906.63
2023-04-27T15:22:42.702Z,99918.34
2023-04-27T15:25:11.217Z,99915.00
2023-04-27T15:27:39.927Z,99907.41
2023-04-27T15:30:08.836Z,99904.25
2023-04-27T15:32:37.921Z,99906.03
2023-04-27T15:35:06.723Z,99899.13
2023-04-27T15:37:36.581Z,99894.44
2023-04-27T15:40:07.362Z,99887.41
2023-04-27T15:42:35.052Z,99890.97
2023-04-27T15:45:02.832Z,99876.22
2023-04-27T15:47:30.609Z,99875.44
2023-04-27T15:49:59.540Z,99869.25
2023-04-27T15:52:27.370Z,99869.91
2023-04-27T15:54:55.768Z,99863.38
2023-04-27T15:57:23.416Z,99858.66
2023-04-27T15:59:51.013Z,99864.38
2023-04-27T16:02:19.353Z,99860.78
2023-04-27T16:04:47.081Z,99855.19
2023-04-27T16:07:16.110Z,99849.94
2023-04-27T16:09:43.793Z,99847.03
2023-04-27T16:12:11.452Z,99839.16
2023-04-27T16:14:39.205Z,99844.03
2023-04-27T16:17:06.846Z,99841.53
2023-04-27T16:19:34.466Z,99826.28
2023-04-27T16:22:04.029Z,99840.94
2023-04-27T16:24:33.025Z,99837.94
2023-04-27T16:27:01.285Z,99836.06
2023-04-27T16:29:29.376Z,99837.09
2023-04-27T16:31:57.090Z,99833.38
2023-04-27T16:34:24.892Z,99781.38
2023-04-27T16:36:52.562Z,99832.34
2023-04-27T16:39:20.326Z,99840.97
2023-04-27T16:41:49.764Z,99840.63
2023-04-27T16:44:17.513Z,99835.13
2023-04-27T16:46:45.475Z,99836.94
2023-04-27T16:49:13.876Z,99839.56
2023-04-27T16:51:42.207Z,99842.72
2023-04-27T16:54:10.492Z,99838.84
2023-04-27T16:56:38.153Z,99840.47
2023-04-27T16:59:07.627Z,99843.41
2023-04-27T17:01:35.402Z,99838.38
2023-04-27T17:04:03.409Z,99828.00
2023-04-27T17:06:31.381Z,99818.31
2023-04-27T17:08:59.492Z,99828.25
2023-04-27T17:11:27.392Z,99832.75
2023-04-27T17:13:55.421Z,99835.81
2023-04-27T17:16:25.014Z,99836.13
2023-04-27T17:18:52.984Z,99831.31
2023-04-27T17:21:22.614Z,99833.53
2023-04-27T17:23:52.008Z,99831.06
2023-04-27T17:26:21.440Z,99834.47
2023-04-27T17:28:50.474Z,99836.19
2023-04-27T17:31:18.192Z,99826.97
2023-04-27T17:33:47.360Z,99832.63
2023-04-27T17:36:15.143Z,99821.72
2023-04-27T17:38:42.866Z,99823.84
2023-04-27T17:41:10.995Z,99822.50
2023-04-27T17:43:38.731Z,99825.81
2023-04-27T17:46:08.027Z,99806.25
2023-04-27T17:48:36.202Z,99828.44
2023-04-27T17:51:05.471Z,99830.97
2023-04-27T17:53:33.149Z,99825.91
2023-04-27T17:56:00.956Z,99826.88
2023-04-27T17:58:28.780Z,99829.75
2023-04-27T18:00:56.405Z,99821.53
2023-04-27T18:03:24.405Z,99821.59
2023-04-27T18:05:52.606Z,99825.66
2023-04-27T18:08:21.541Z,99830.06
2023-04-27T18:10:49.218Z,99828.97
2023-04-27T18:13:17.250Z,99836.47
2023-04-27T18:15:44.910Z,99829.44
2023-04-27T18:18:16.748Z,99816.84
2023-04-27T18:20:44.899Z,99812.91
2023-04-27T18:23:12.594Z,99816.47
2023-04-27T18:25:41.595Z,99823.97
2023-04-27T18:28:09.957Z,99816.88
2023-04-27T18:30:37.644Z,99812.13
2023-04-27T18:33:05.517Z,99816.06
2023-04-27T18:35:33.265Z,99817.97
2023-04-27T18:38:00.859Z,99811.22
2023-04-27T18:40:28.590Z,99746.16
2023-04-27T18:42:57.632Z,99810.81
2023-04-27T18:45:25.396Z,99815.13
2023-04-27T18:47:53.026Z,99811.91
2023-04-27T18:50:20.824Z,99812.28
2023-04-27T18:52:48.476Z,99819.69
2023-04-27T18:55:16.797Z,99814.97
2023-04-27T18:57:44.518Z,99815.00
2023-04-27T19:00:14.949Z,99820.09
2023-04-27T19:02:42.615Z,99818.91
2023-04-27T19:05:13.478Z,99814.94
2023-04-27T19:07:41.405Z,99814.91
2023-04-27T19:10:10.323Z,99825.16
2023-04-27T19:12:38.387Z,99820.50
2023-04-27T19:15:06.626Z,99822.91
2023-04-27T19:17:35.776Z,99820.59
2023-04-27T19:20:03.617Z,99828.56
2023-04-27T19:22:34.098Z,99821.13
2023-04-27T19:25:01.983Z,99819.59
2023-04-27T19:27:29.986Z,99813.31
2023-04-27T19:29:58.587Z,99807.41
2023-04-27T19:32:27.693Z,99802.28
2023-04-27T19:34:57.851Z,99803.84
2023-04-27T19:37:26.035Z,99812.13
2023-04-27T19:39:53.706Z,99800.28
2023-04-27T19:42:21.347Z,99799.06
2023-04-27T19:44:49.028Z,99800.28
2023-04-27T19:47:16.805Z,99793.16
2023-04-27T19:49:44.548Z,99777.44
2023-04-27T19:52:13.910Z,99799.50
2023-04-27T19:54:41.684Z,99802.63
2023-04-27T19:57:09.362Z,99799.88
2023-04-27T19:59:37.798Z,99801.06
2023-04-27T20:02:05.471Z,99796.72
2023-04-27T20:04:33.457Z,99799.88
2023-04-27T20:07:03.254Z,99793.97
2023-04-27T20:09:33.664Z,99793.22
2023-04-27T20:12:01.467Z,99790.03
2023-04-27T20:14:31.183Z,99793.22
2023-04-27T20:16:58.824Z,99792.41
2023-04-27T20:19:26.508Z,99788.47
2023-04-27T20:21:54.414Z,99787.66
2023-04-27T20:24:22.554Z,99782.53
2023-04-27T20:26:51.535Z,99778.22
2023-04-27T20:29:19.227Z,99792.00
2023-04-27T20:31:48.411Z,99790.84
2023-04-27T20:34:16.271Z,99793.19
2023-04-27T20:36:44.388Z,99791.66
2023-04-27T20:39:12.970Z,99781.78
2023-04-27T20:41:41.875Z,99785.31
2023-04-27T20:44:11.719Z,99787.69
2023-04-27T20:46:39.452Z,99786.50
2023-04-27T20:49:07.316Z,99781.41
2023-04-27T20:51:35.021Z,99774.31
2023-04-27T20:54:02.777Z,99774.69
2023-04-27T20:56:31.376Z,99778.25
2023-04-27T20:58:59.137Z,99777.44
2023-04-27T21:01:28.255Z,99775.06
2023-04-27T21:03:56.024Z,99773.91
2023-04-27T21:06:23.731Z,99755.00
2023-04-27T21:08:51.573Z,99761.25
2023-04-27T21:11:20.477Z,99750.63
2023-04-27T21:13:48.087Z,99742.31
2023-04-27T21:16:15.852Z,99743.47
2023-04-27T21:18:44.905Z,99743.47
2023-04-27T21:21:12.524Z,99742.31
2023-04-27T21:23:40.651Z,99741.53
2023-04-27T21:26:08.885Z,99742.69
2023-04-27T21:28:36.924Z,99748.19
2023-04-27T21:31:04.550Z,99740.72
2023-04-27T21:33:32.271Z,99743.09
2023-04-27T21:36:03.625Z,99739.50
2023-04-27T21:38:31.413Z,99738.75
2023-04-27T21:40:59.792Z,99732.03
2023-04-27T21:43:27.503Z,99734.81
2023-04-27T21:45:55.335Z,99732.44
2023-04-27T21:48:23.012Z,99731.59
2023-04-27T21:50:51.291Z,99728.81
2023-04-27T21:53:20.250Z,99734.38
2023-04-27T21:55:49.338Z,99722.91
2023-04-27T21:58:17.158Z,99728.41
2023-04-27T22:00:44.844Z,99720.91
2023-04-27T22:03:12.861Z,99717.31
2023-04-27T22:05:40.627Z,99716.59
2023-04-27T22:08:08.956Z,99717.38
2023-04-27T22:10:38.037Z,99707.47
2023-04-27T22:13:17.709Z,99714.19
2023-04-27T22:15:46.463Z,99717.31
2023-04-27T22:18:14.790Z,99696.44
2023-04-27T22:20:42.929Z,99721.22
2023-04-27T22:23:11.481Z,99705.84
2023-04-27T22:25:42.722Z,99724.38
2023-04-27T22:28:11.029Z,99725.53
2023-04-27T22:30:39.848Z,99716.50
2023-04-27T22:33:08.017Z,99714.53
2023-04-27T22:35:36.885Z,99715.69
2023-04-27T22:38:04.685Z,99717.69
2023-04-27T22:40:32.338Z,99642.16
2023-04-27T22:43:01.637Z,99703.50
2023-04-27T22:45:29.287Z,99659.81
2023-04-27T22:47:57.514Z,99700.34
2023-04-27T22:50:25.215Z,99703.50
2023-04-27T22:52:53.927Z,99698.75
2023-04-27T22:55:22.199Z,99692.44
2023-04-27T22:57:50.701Z,99690.91
2023-04-27T23:00:19.830Z,99698.44
2023-04-27T23:02:47.724Z,99695.63
2023-04-27T23:05:16.523Z,99697.16
2023-04-27T23:07:44.325Z,99686.50
2023-04-27T23:10:12.905Z,99690.84
2023-04-27T23:12:40.658Z,99678.63
2023-04-27T23:15:09.386Z,99679.03
2023-04-27T23:17:38.452Z,99673.53
2023-04-27T23:20:24.057Z,99658.53
2023-04-27T23:22:55.513Z,99664.88
2023-04-27T23:25:23.214Z,99659.72
2023-04-27T23:27:52.420Z,99652.63
2023-04-27T23:30:21.247Z,99659.31
2023-04-27T23:32:50.470Z,99663.63
2023-04-27T23:35:18.185Z,99655.75
2023-04-27T23:37:45.968Z,99653.06
2023-04-27T23:40:14.115Z,99645.53
2023-04-27T23:42:41.875Z,99649.47
2023-04-27T23:45:10.027Z,99652.63
2023-04-27T23:47:37.915Z,99649.84
2023-04-27T23:50:07.925Z,99646.28
2023-04-27T23:52:35.540Z,99657.31
2023-04-27T23:55:03.146Z,99652.91
2023-04-27T23:57:30.816Z,99654.53
2023-04-27T23:59:58.414Z,99649.41
